createdAt,value
2023-02-26T00:00:37.028Z,2.10
2023-02-26T00:01:37.027Z,2.30
2023-02-26T00:02:37.014Z,2.30
2023-02-26T00:03:37.099Z,2.10
2023-02-26T00:04:37.017Z,2.20
2023-02-26T00:05:36.969Z,2.10
2023-02-26T00:06:36.986Z,1.80
2023-02-26T00:07:37.055Z,1.80
2023-02-26T00:08:36.952Z,2.20
2023-02-26T00:09:36.937Z,1.90
2023-02-26T00:10:36.996Z,2.00
2023-02-26T00:11:36.900Z,1.90
2023-02-26T00:12:36.905Z,1.80
2023-02-26T00:13:36.897Z,1.70
2023-02-26T00:14:36.900Z,1.80
2023-02-26T00:15:36.860Z,2.10
2023-02-26T00:16:36.938Z,2.00
2023-02-26T00:17:36.865Z,1.80
2023-02-26T00:18:36.822Z,1.70
2023-02-26T00:19:36.834Z,1.60
2023-02-26T00:20:36.801Z,1.80
2023-02-26T00:21:36.812Z,1.90
2023-02-26T00:22:36.846Z,1.90
2023-02-26T00:23:36.773Z,1.90
2023-02-26T00:24:36.777Z,2.00
2023-02-26T00:25:36.759Z,1.90
2023-02-26T00:26:36.761Z,1.90
2023-02-26T00:27:36.739Z,2.10
2023-02-26T00:28:36.740Z,2.00
2023-02-26T00:29:36.726Z,1.80
2023-02-26T00:30:36.756Z,1.90
2023-02-26T00:31:36.761Z,1.80
2023-02-26T00:32:36.696Z,1.80
2023-02-26T00:33:36.683Z,1.90
2023-02-26T00:34:36.721Z,1.90
2023-02-26T00:35:36.639Z,1.90
2023-02-26T00:36:36.638Z,1.90
2023-02-26T00:37:36.635Z,2.00
2023-02-26T00:38:36.603Z,1.80
2023-02-26T00:39:36.611Z,1.90
2023-02-26T00:40:36.682Z,1.90
2023-02-26T00:41:36.665Z,2.00
2023-02-26T00:42:36.596Z,2.10
2023-02-26T00:43:36.597Z,1.80
2023-02-26T00:44:36.541Z,1.90
2023-02-26T00:45:36.529Z,2.20
2023-02-26T00:46:36.551Z,2.00
2023-02-26T00:47:36.554Z,2.00
2023-02-26T00:48:36.507Z,2.10
2023-02-26T00:49:36.485Z,2.20
2023-02-26T00:50:36.479Z,2.10
2023-02-26T00:51:36.462Z,2.30
2023-02-26T00:52:36.513Z,2.20
2023-02-26T00:53:36.467Z,2.20
2023-02-26T00:54:36.445Z,2.30
2023-02-26T00:55:36.418Z,2.40
2023-02-26T00:56:36.406Z,2.20
2023-02-26T00:57:36.426Z,2.20
2023-02-26T00:58:36.420Z,2.10
2023-02-26T00:59:36.397Z,2.20
2023-02-26T01:00:36.362Z,2.20
2023-02-26T01:01:36.414Z,2.10
2023-02-26T01:02:36.375Z,2.30
2023-02-26T01:03:36.351Z,2.20
2023-02-26T01:04:36.359Z,2.40
2023-02-26T01:05:36.321Z,2.30
2023-02-26T01:06:36.320Z,2.20
2023-02-26T01:07:36.284Z,2.40
2023-02-26T01:08:36.295Z,2.20
2023-02-26T01:09:36.289Z,2.20
2023-02-26T01:10:36.260Z,2.30
2023-02-26T01:11:36.296Z,2.30
2023-02-26T01:12:36.227Z,2.00
2023-02-26T01:13:36.248Z,2.10
2023-02-26T01:14:36.273Z,2.10
2023-02-26T01:15:36.235Z,2.00
2023-02-26T01:16:36.234Z,2.20
2023-02-26T01:17:36.201Z,2.20
2023-02-26T01:18:36.160Z,1.90
2023-02-26T01:19:36.188Z,1.80
2023-02-26T01:20:36.176Z,1.80
2023-02-26T01:21:36.131Z,1.70
2023-02-26T01:22:36.223Z,1.70
2023-02-26T01:23:36.106Z,1.50
2023-02-26T01:24:36.097Z,1.50
2023-02-26T01:25:36.085Z,1.80
2023-02-26T01:26:36.102Z,1.40
2023-02-26T01:27:36.091Z,1.70
2023-02-26T01:28:36.135Z,1.60
2023-02-26T01:29:36.040Z,1.60
2023-02-26T01:30:36.051Z,1.30
2023-02-26T01:31:36.152Z,1.40
2023-02-26T01:32:36.017Z,1.30
2023-02-26T01:33:36.011Z,1.40
2023-02-26T01:34:36.019Z,1.50
2023-02-26T01:35:35.979Z,1.40
2023-02-26T01:36:35.964Z,1.60
2023-02-26T01:37:35.985Z,1.40
2023-02-26T01:38:35.987Z,1.40
2023-02-26T01:39:35.939Z,1.40
2023-02-26T01:40:35.990Z,1.30
2023-02-26T01:41:35.920Z,1.40
2023-02-26T01:42:35.922Z,1.50
2023-02-26T01:43:35.914Z,1.20
2023-02-26T01:44:35.919Z,1.50
2023-02-26T01:45:35.882Z,1.40
2023-02-26T01:46:35.978Z,1.60
2023-02-26T01:47:35.845Z,1.50
2023-02-26T01:48:35.862Z,1.60
2023-02-26T01:49:35.843Z,1.30
2023-02-26T01:50:35.822Z,1.30
2023-02-26T01:51:35.819Z,1.50
2023-02-26T01:52:35.859Z,1.50
2023-02-26T01:53:35.785Z,1.60
2023-02-26T01:54:35.777Z,1.50
2023-02-26T01:55:35.758Z,1.60
2023-02-26T01:56:35.768Z,1.70
2023-02-26T01:57:35.772Z,1.70
2023-02-26T01:58:35.811Z,1.60
2023-02-26T01:59:35.724Z,1.70
2023-02-26T02:00:35.707Z,1.70
2023-02-26T02:01:35.696Z,1.70
2023-02-26T02:02:35.830Z,1.70
2023-02-26T02:03:35.860Z,1.90
2023-02-26T02:04:35.757Z,2.00
2023-02-26T02:05:35.681Z,1.90
2023-02-26T02:06:35.655Z,1.90
2023-02-26T02:07:35.635Z,2.00
2023-02-26T02:08:35.674Z,1.90
2023-02-26T02:09:35.647Z,1.70
2023-02-26T02:10:35.669Z,1.70
2023-02-26T02:11:35.581Z,1.80
2023-02-26T02:12:35.590Z,1.60
2023-02-26T02:13:35.592Z,1.80
2023-02-26T02:14:35.564Z,1.50
2023-02-26T02:15:35.549Z,1.60
2023-02-26T02:16:35.629Z,1.40
2023-02-26T02:17:35.527Z,1.30
2023-02-26T02:18:35.540Z,1.50
2023-02-26T02:19:35.507Z,1.40
2023-02-26T02:20:35.480Z,1.40
2023-02-26T02:21:35.469Z,1.30
2023-02-26T02:22:35.543Z,1.70
2023-02-26T02:23:35.456Z,1.30
2023-02-26T02:24:35.439Z,1.50
2023-02-26T02:25:35.453Z,1.20
2023-02-26T02:26:35.421Z,1.20
2023-02-26T02:27:35.400Z,1.20
2023-02-26T02:28:35.414Z,1.50
2023-02-26T02:29:35.392Z,1.20
2023-02-26T02:30:35.400Z,1.40
2023-02-26T02:31:35.517Z,1.40
2023-02-26T02:32:35.476Z,1.30
2023-02-26T02:33:35.332Z,1.30
2023-02-26T02:34:35.397Z,1.10
2023-02-26T02:35:35.339Z,1.20
2023-02-26T02:36:35.314Z,1.50
2023-02-26T02:37:35.295Z,1.30
2023-02-26T02:38:35.282Z,1.20
2023-02-26T02:39:35.276Z,1.40
2023-02-26T02:40:35.449Z,1.40
2023-02-26T02:41:35.287Z,2.30
2023-02-26T02:42:35.244Z,2.00
2023-02-26T02:43:35.222Z,1.80
2023-02-26T02:44:35.216Z,1.40
2023-02-26T02:45:35.261Z,1.30
2023-02-26T02:46:35.434Z,1.30
2023-02-26T02:47:35.217Z,1.40
2023-02-26T02:48:35.192Z,1.30
2023-02-26T02:49:35.163Z,1.40
2023-02-26T02:50:35.167Z,1.10
2023-02-26T02:51:35.165Z,1.50
2023-02-26T02:52:35.216Z,1.40
2023-02-26T02:53:35.163Z,1.70
2023-02-26T02:54:35.125Z,1.20
2023-02-26T02:55:35.096Z,1.50
2023-02-26T02:56:35.092Z,1.70
2023-02-26T02:57:35.076Z,1.60
2023-02-26T02:58:35.110Z,1.60
2023-02-26T02:59:35.067Z,1.70
2023-02-26T03:00:35.039Z,1.70
2023-02-26T03:01:35.030Z,1.70
2023-02-26T03:02:35.086Z,2.30
2023-02-26T03:03:35.027Z,2.10
2023-02-26T03:04:35.045Z,2.30
2023-02-26T03:05:35.005Z,2.00
2023-02-26T03:06:35.430Z,1.90
2023-02-26T03:07:34.976Z,1.70
2023-02-26T03:08:34.954Z,1.90
2023-02-26T03:09:34.960Z,1.90
2023-02-26T03:10:34.964Z,2.20
2023-02-26T03:11:34.948Z,1.60
2023-02-26T03:12:34.916Z,1.90
2023-02-26T03:13:34.898Z,1.70
2023-02-26T03:14:34.890Z,1.60
2023-02-26T03:15:34.880Z,2.00
2023-02-26T03:16:34.954Z,1.90
2023-02-26T03:17:34.857Z,1.90
2023-02-26T03:18:34.897Z,1.90
2023-02-26T03:19:34.836Z,1.80
2023-02-26T03:20:34.858Z,1.90
2023-02-26T03:21:34.814Z,1.80
2023-02-26T03:22:34.859Z,1.90
2023-02-26T03:23:34.790Z,1.90
2023-02-26T03:24:34.802Z,2.60
2023-02-26T03:25:34.788Z,2.20
2023-02-26T03:26:34.785Z,2.00
2023-02-26T03:27:34.753Z,2.00
2023-02-26T03:28:34.800Z,1.90
2023-02-26T03:29:34.731Z,2.10
2023-02-26T03:30:34.731Z,1.90
2023-02-26T03:31:34.762Z,1.60
2023-02-26T03:32:34.818Z,2.00
2023-02-26T03:33:34.698Z,1.70
2023-02-26T03:34:34.738Z,1.90
2023-02-26T03:35:34.666Z,1.80
2023-02-26T03:36:34.669Z,1.70
2023-02-26T03:37:34.650Z,1.80
2023-02-26T03:38:34.648Z,1.70
2023-02-26T03:39:34.639Z,1.80
2023-02-26T03:40:34.674Z,1.80
2023-02-26T03:41:34.614Z,1.80
2023-02-26T03:42:34.590Z,1.70
2023-02-26T03:43:34.586Z,1.60
2023-02-26T03:44:34.573Z,1.70
2023-02-26T03:45:34.566Z,1.60
2023-02-26T03:46:34.608Z,1.70
2023-02-26T03:47:34.535Z,1.70
2023-02-26T03:48:34.530Z,1.80
2023-02-26T03:49:34.533Z,1.60
2023-02-26T03:50:34.506Z,1.90
2023-02-26T03:51:34.508Z,1.90
2023-02-26T03:52:34.534Z,1.80
2023-02-26T03:53:34.482Z,1.50
2023-02-26T03:54:34.506Z,1.80
2023-02-26T03:55:34.443Z,1.60
2023-02-26T03:56:34.451Z,1.70
2023-02-26T03:57:34.432Z,1.90
2023-02-26T03:58:34.462Z,1.80
2023-02-26T03:59:34.415Z,1.60
2023-02-26T04:00:34.400Z,1.80
2023-02-26T04:01:43.286Z,1.80
2023-02-26T04:02:34.474Z,1.90
2023-02-26T04:03:34.354Z,1.90
2023-02-26T04:04:34.456Z,1.90
2023-02-26T04:05:34.354Z,1.90
2023-02-26T04:06:34.337Z,1.80
2023-02-26T04:07:34.348Z,2.10
2023-02-26T04:08:34.334Z,1.80
2023-02-26T04:09:34.294Z,1.90
2023-02-26T04:10:34.300Z,1.70
2023-02-26T04:11:34.288Z,1.90
2023-02-26T04:12:34.282Z,1.80
2023-02-26T04:13:34.260Z,1.80
2023-02-26T04:14:34.307Z,2.00
2023-02-26T04:15:34.221Z,1.80
2023-02-26T04:16:34.264Z,1.90
2023-02-26T04:17:34.236Z,1.90
2023-02-26T04:18:34.221Z,2.00
2023-02-26T04:19:34.203Z,2.10
2023-02-26T04:20:34.188Z,1.80
2023-02-26T04:21:34.156Z,1.90
2023-02-26T04:22:34.172Z,1.90
2023-02-26T04:23:34.136Z,1.90
2023-02-26T04:24:34.131Z,2.30
2023-02-26T04:25:34.127Z,1.90
2023-02-26T04:26:34.133Z,1.80
2023-02-26T04:27:34.090Z,1.80
2023-02-26T04:28:34.114Z,1.80
2023-02-26T04:29:34.084Z,1.70
2023-02-26T04:30:34.122Z,1.90
2023-02-26T04:31:34.120Z,1.80
2023-02-26T04:32:34.084Z,1.90
2023-02-26T04:33:34.032Z,1.80
2023-02-26T04:34:34.036Z,2.20
2023-02-26T04:35:34.002Z,1.80
2023-02-26T04:36:34.036Z,1.80
2023-02-26T04:37:34.450Z,1.90
2023-02-26T04:38:33.971Z,1.90
2023-02-26T04:39:33.984Z,1.80
2023-02-26T04:40:33.991Z,1.90
2023-02-26T04:41:33.941Z,1.90
2023-02-26T04:42:34.036Z,1.90
2023-02-26T04:43:33.978Z,1.70
2023-02-26T04:44:33.902Z,1.90
2023-02-26T04:45:33.993Z,1.90
2023-02-26T04:46:33.961Z,1.90
2023-02-26T04:47:33.879Z,1.80
2023-02-26T04:48:33.870Z,2.30
2023-02-26T04:49:33.849Z,1.90
2023-02-26T04:50:33.837Z,1.90
2023-02-26T04:51:33.855Z,1.80
2023-02-26T04:52:33.816Z,2.00
2023-02-26T04:53:33.808Z,1.70
2023-02-26T04:54:33.833Z,2.20
2023-02-26T04:55:33.779Z,1.80
2023-02-26T04:56:33.773Z,1.90
2023-02-26T04:57:33.788Z,2.10
2023-02-26T04:58:33.775Z,2.00
2023-02-26T04:59:33.750Z,1.80
2023-02-26T05:00:33.762Z,1.90
2023-02-26T05:01:33.763Z,1.90
2023-02-26T05:02:33.704Z,2.00
2023-02-26T05:03:33.699Z,1.80
2023-02-26T05:04:33.774Z,1.80
2023-02-26T05:05:33.712Z,2.00
2023-02-26T05:06:33.661Z,1.80
2023-02-26T05:07:33.662Z,1.90
2023-02-26T05:08:33.663Z,1.90
2023-02-26T05:09:33.640Z,1.80
2023-02-26T05:10:33.652Z,1.80
2023-02-26T05:11:33.630Z,2.00
2023-02-26T05:12:33.607Z,1.90
2023-02-26T05:13:33.589Z,2.10
2023-02-26T05:14:33.604Z,2.30
2023-02-26T05:15:33.592Z,1.70
2023-02-26T05:16:33.695Z,2.00
2023-02-26T05:17:33.570Z,2.10
2023-02-26T05:18:33.536Z,1.90
2023-02-26T05:19:33.522Z,1.90
2023-02-26T05:20:33.550Z,1.80
2023-02-26T05:21:33.526Z,2.00
2023-02-26T05:22:33.509Z,2.20
2023-02-26T05:23:33.507Z,2.00
2023-02-26T05:24:33.506Z,2.20
2023-02-26T05:25:33.458Z,1.80
2023-02-26T05:26:33.457Z,1.90
2023-02-26T05:27:33.435Z,1.70
2023-02-26T05:28:33.440Z,1.90
2023-02-26T05:29:33.447Z,2.00
2023-02-26T05:30:33.473Z,2.00
2023-02-26T05:31:33.447Z,2.10
2023-02-26T05:32:33.434Z,1.90
2023-02-26T05:33:33.383Z,2.00
2023-02-26T05:34:33.384Z,2.10
2023-02-26T05:35:33.349Z,1.90
2023-02-26T05:36:33.371Z,1.90
2023-02-26T05:37:33.334Z,1.80
2023-02-26T05:38:33.341Z,1.90
2023-02-26T05:39:33.311Z,1.80
2023-02-26T05:40:33.334Z,2.00
2023-02-26T05:41:33.284Z,2.00
2023-02-26T05:42:33.271Z,1.90
2023-02-26T05:43:33.275Z,2.10
2023-02-26T05:44:33.266Z,2.00
2023-02-26T05:45:33.251Z,1.90
2023-02-26T05:46:33.323Z,1.70
2023-02-26T05:47:33.242Z,1.70
2023-02-26T05:48:33.217Z,1.90
2023-02-26T05:49:33.207Z,2.00
2023-02-26T05:50:33.214Z,1.90
2023-02-26T05:51:33.191Z,1.80
2023-02-26T05:52:33.184Z,2.00
2023-02-26T05:53:33.151Z,1.90
2023-02-26T05:54:33.140Z,2.50
2023-02-26T05:55:33.148Z,2.60
2023-02-26T05:56:33.166Z,2.90
2023-02-26T05:57:33.119Z,3.40
2023-02-26T05:58:33.127Z,2.70
2023-02-26T05:59:33.091Z,2.10
2023-02-26T06:00:33.072Z,2.10
2023-02-26T06:01:43.088Z,2.10
2023-02-26T06:02:33.064Z,2.00
2023-02-26T06:03:33.067Z,2.10
2023-02-26T06:04:33.028Z,1.90
2023-02-26T06:05:33.021Z,1.80
2023-02-26T06:06:33.011Z,1.80
2023-02-26T06:07:33.022Z,2.00
2023-02-26T06:08:33.033Z,1.90
2023-02-26T06:09:32.999Z,2.30
2023-02-26T06:10:32.989Z,2.20
2023-02-26T06:11:34.031Z,2.40
2023-02-26T06:12:32.944Z,2.20
2023-02-26T06:13:32.930Z,2.20
2023-02-26T06:14:32.968Z,2.50
2023-02-26T06:15:32.920Z,3.10
2023-02-26T06:16:33.063Z,3.60
2023-02-26T06:17:32.911Z,3.30
2023-02-26T06:18:32.882Z,3.10
2023-02-26T06:19:32.906Z,2.70
2023-02-26T06:20:32.864Z,2.60
2023-02-26T06:21:32.843Z,2.20
2023-02-26T06:22:32.841Z,2.60
2023-02-26T06:23:32.833Z,2.70
2023-02-26T06:24:32.826Z,2.90
2023-02-26T06:25:32.827Z,3.00
2023-02-26T06:26:32.807Z,3.00
2023-02-26T06:27:32.783Z,3.00
2023-02-26T06:28:32.788Z,3.00
2023-02-26T06:29:32.770Z,2.50
2023-02-26T06:30:32.782Z,2.50
2023-02-26T06:31:32.789Z,2.40
2023-02-26T06:32:32.782Z,2.60
2023-02-26T06:33:42.102Z,2.80
2023-02-26T06:34:32.737Z,2.80
2023-02-26T06:35:32.730Z,2.70
2023-02-26T06:36:32.768Z,3.00
2023-02-26T06:37:32.684Z,2.50
2023-02-26T06:38:32.817Z,2.50
2023-02-26T06:39:32.674Z,2.70
2023-02-26T06:40:32.688Z,2.30
2023-02-26T06:41:32.680Z,2.40
2023-02-26T06:42:32.625Z,2.30
2023-02-26T06:43:32.673Z,2.20
2023-02-26T06:44:32.628Z,2.20
2023-02-26T06:45:32.681Z,2.10
2023-02-26T06:46:32.609Z,2.10
2023-02-26T06:47:32.604Z,2.30
2023-02-26T06:48:32.558Z,2.10
2023-02-26T06:49:32.566Z,2.10
2023-02-26T06:50:32.581Z,1.90
2023-02-26T06:51:32.579Z,2.00
2023-02-26T06:52:32.541Z,2.00
2023-02-26T06:53:32.528Z,2.10
2023-02-26T06:54:32.503Z,2.00
2023-02-26T06:55:32.510Z,2.20
2023-02-26T06:56:32.474Z,1.90
2023-02-26T06:57:32.514Z,2.20
2023-02-26T06:58:32.480Z,2.20
2023-02-26T06:59:32.489Z,2.00
2023-02-26T07:00:32.439Z,2.30
2023-02-26T07:01:32.446Z,1.90
2023-02-26T07:02:32.499Z,1.80
2023-02-26T07:03:32.441Z,2.20
2023-02-26T07:04:32.427Z,2.10
2023-02-26T07:05:32.392Z,2.30
2023-02-26T07:06:32.374Z,2.10
2023-02-26T07:07:32.466Z,2.10
2023-02-26T07:08:32.552Z,2.10
2023-02-26T07:09:32.435Z,2.10
2023-02-26T07:10:32.461Z,2.20
2023-02-26T07:11:32.372Z,2.00
2023-02-26T07:12:32.305Z,1.90
2023-02-26T07:13:32.556Z,2.20
2023-02-26T07:14:32.301Z,2.20
2023-02-26T07:15:32.292Z,2.10
2023-02-26T07:16:32.362Z,2.10
2023-02-26T07:17:32.246Z,2.20
2023-02-26T07:18:32.250Z,2.30
2023-02-26T07:19:32.365Z,2.10
2023-02-26T07:20:32.230Z,2.00
2023-02-26T07:21:32.275Z,2.10
2023-02-26T07:22:32.248Z,2.20
2023-02-26T07:23:32.186Z,2.00
2023-02-26T07:24:32.183Z,2.20
2023-02-26T07:25:32.167Z,2.10
2023-02-26T07:26:32.167Z,2.20
2023-02-26T07:27:32.177Z,2.10
2023-02-26T07:28:32.125Z,2.20
2023-02-26T07:29:32.199Z,2.30
2023-02-26T07:30:32.252Z,2.10
2023-02-26T07:31:32.306Z,2.10
2023-02-26T07:32:32.150Z,2.10
2023-02-26T07:33:32.161Z,2.10
2023-02-26T07:34:32.120Z,2.10
2023-02-26T07:35:32.056Z,2.40
2023-02-26T07:36:32.073Z,2.30
2023-02-26T07:37:32.102Z,2.30
2023-02-26T07:38:32.117Z,2.10
2023-02-26T07:39:32.015Z,2.30
2023-02-26T07:40:32.041Z,2.10
2023-02-26T07:41:32.000Z,2.20
2023-02-26T07:42:32.063Z,2.20
2023-02-26T07:43:31.985Z,2.10
2023-02-26T07:44:31.965Z,2.10
2023-02-26T07:45:31.968Z,2.20
2023-02-26T07:46:31.980Z,2.00
2023-02-26T07:47:31.966Z,2.40
2023-02-26T07:48:31.937Z,2.20
2023-02-26T07:49:31.991Z,2.30
2023-02-26T07:50:31.901Z,2.10
2023-02-26T07:51:32.639Z,2.00
2023-02-26T07:52:31.870Z,2.00
2023-02-26T07:53:31.882Z,2.00
2023-02-26T07:54:31.851Z,2.30
2023-02-26T07:55:31.883Z,2.00
2023-02-26T07:56:31.824Z,2.10
2023-02-26T07:57:31.851Z,2.10
2023-02-26T07:58:31.805Z,2.20
2023-02-26T07:59:31.781Z,2.20
2023-02-26T08:00:31.810Z,2.20
2023-02-26T08:01:32.071Z,2.40
2023-02-26T08:02:31.813Z,2.20
2023-02-26T08:03:31.879Z,2.30
2023-02-26T08:04:31.792Z,2.20
2023-02-26T08:05:31.717Z,2.20
2023-02-26T08:06:31.722Z,2.20
2023-02-26T08:07:31.699Z,2.40
2023-02-26T08:08:31.718Z,2.40
2023-02-26T08:09:31.814Z,2.40
2023-02-26T08:10:31.668Z,2.20
2023-02-26T08:11:31.650Z,2.30
2023-02-26T08:12:31.724Z,2.70
2023-02-26T08:13:31.649Z,2.50
2023-02-26T08:14:31.658Z,2.60
2023-02-26T08:15:31.729Z,2.70
2023-02-26T08:16:40.646Z,2.50
2023-02-26T08:17:31.580Z,2.60
2023-02-26T08:18:31.576Z,2.40
2023-02-26T08:19:31.576Z,2.50
2023-02-26T08:20:31.569Z,2.10
2023-02-26T08:21:31.562Z,2.30
2023-02-26T08:22:31.522Z,2.50
2023-02-26T08:23:31.527Z,2.30
2023-02-26T08:24:31.521Z,2.70
2023-02-26T08:25:31.552Z,2.30
2023-02-26T08:26:31.503Z,2.30
2023-02-26T08:27:31.514Z,2.50
2023-02-26T08:28:31.455Z,2.70
2023-02-26T08:29:31.447Z,2.50
2023-02-26T08:30:31.527Z,2.20
2023-02-26T08:31:31.537Z,2.40
2023-02-26T08:32:31.462Z,2.40
2023-02-26T08:33:31.403Z,2.50
2023-02-26T08:34:31.435Z,2.30
2023-02-26T08:35:31.380Z,2.60
2023-02-26T08:36:31.381Z,2.20
2023-02-26T08:37:31.364Z,2.40
2023-02-26T08:38:31.363Z,2.70
2023-02-26T08:39:31.336Z,2.60
2023-02-26T08:40:31.346Z,2.50
2023-02-26T08:41:31.336Z,2.50
2023-02-26T08:42:31.328Z,2.20
2023-02-26T08:43:31.303Z,2.40
2023-02-26T08:44:31.300Z,2.50
2023-02-26T08:45:31.311Z,2.40
2023-02-26T08:46:31.316Z,2.50
2023-02-26T08:47:31.965Z,2.40
2023-02-26T08:48:31.239Z,2.50
2023-02-26T08:49:31.254Z,2.50
2023-02-26T08:50:31.253Z,2.50
2023-02-26T08:51:31.208Z,2.50
2023-02-26T08:52:31.216Z,2.70
2023-02-26T08:53:31.208Z,2.30
2023-02-26T08:54:31.176Z,2.60
2023-02-26T08:55:31.170Z,2.40
2023-02-26T08:56:31.155Z,2.70
2023-02-26T08:57:31.179Z,2.50
2023-02-26T08:58:32.207Z,2.50
2023-02-26T08:59:31.139Z,2.60
2023-02-26T09:00:31.117Z,2.50
2023-02-26T09:01:31.166Z,2.60
2023-02-26T09:02:31.109Z,2.50
2023-02-26T09:03:31.109Z,2.70
2023-02-26T09:04:31.361Z,2.80
2023-02-26T09:05:31.051Z,2.80
2023-02-26T09:06:31.058Z,2.70
2023-02-26T09:07:32.020Z,3.00
2023-02-26T09:08:31.020Z,2.90
2023-02-26T09:09:31.031Z,2.80
2023-02-26T09:10:31.010Z,2.70
2023-02-26T09:11:31.022Z,2.80
2023-02-26T09:12:30.982Z,2.80
2023-02-26T09:13:30.994Z,2.70
2023-02-26T09:14:30.974Z,3.00
2023-02-26T09:15:30.940Z,2.70
2023-02-26T09:16:31.018Z,3.10
2023-02-26T09:17:30.927Z,2.80
2023-02-26T09:18:30.923Z,2.90
2023-02-26T09:19:30.934Z,2.90
2023-02-26T09:20:30.919Z,2.80
2023-02-26T09:21:30.874Z,3.00
2023-02-26T09:22:30.867Z,3.00
2023-02-26T09:23:30.870Z,2.80
2023-02-26T09:24:30.876Z,2.80
2023-02-26T09:25:30.849Z,3.10
2023-02-26T09:26:30.857Z,3.00
2023-02-26T09:27:30.815Z,3.00
2023-02-26T09:28:30.826Z,2.70
2023-02-26T09:29:30.822Z,3.00
2023-02-26T09:30:30.811Z,3.10
2023-02-26T09:31:30.878Z,2.90
2023-02-26T09:32:30.862Z,3.00
2023-02-26T09:33:30.742Z,3.10
2023-02-26T09:34:30.773Z,2.70
2023-02-26T09:35:30.729Z,2.90
2023-02-26T09:36:30.740Z,2.90
2023-02-26T09:37:30.698Z,3.00
2023-02-26T09:38:30.691Z,2.90
2023-02-26T09:39:30.690Z,2.70
2023-02-26T09:40:30.691Z,2.90
2023-02-26T09:41:30.694Z,3.00
2023-02-26T09:42:30.685Z,2.90
2023-02-26T09:43:30.631Z,2.60
2023-02-26T09:44:30.629Z,2.50
2023-02-26T09:45:30.656Z,2.60
2023-02-26T09:46:30.623Z,2.30
2023-02-26T09:47:30.586Z,2.40
2023-02-26T09:48:30.596Z,2.50
2023-02-26T09:49:30.568Z,2.40
2023-02-26T09:50:30.569Z,2.40
2023-02-26T09:51:30.549Z,2.50
2023-02-26T09:52:30.557Z,2.60
2023-02-26T09:53:30.551Z,2.50
2023-02-26T09:54:30.509Z,2.50
2023-02-26T09:55:30.528Z,2.30
2023-02-26T09:56:30.490Z,2.60
2023-02-26T09:57:30.509Z,2.40
2023-02-26T09:58:30.510Z,2.50
2023-02-26T09:59:30.497Z,2.40
2023-02-26T10:00:30.445Z,2.60
2023-02-26T10:01:30.572Z,2.20
2023-02-26T10:02:30.423Z,2.30
2023-02-26T10:03:30.429Z,2.40
2023-02-26T10:04:30.498Z,2.50
2023-02-26T10:05:30.389Z,2.30
2023-02-26T10:06:30.462Z,2.30
2023-02-26T10:07:30.367Z,2.40
2023-02-26T10:08:30.366Z,2.20
2023-02-26T10:09:30.371Z,2.40
2023-02-26T10:10:33.013Z,2.50
2023-02-26T10:11:30.346Z,2.30
2023-02-26T10:12:30.345Z,2.20
2023-02-26T10:13:30.315Z,2.50
2023-02-26T10:14:30.311Z,2.60
2023-02-26T10:15:30.281Z,2.60
2023-02-26T10:16:30.958Z,2.10
2023-02-26T10:17:30.302Z,2.40
2023-02-26T10:18:30.370Z,2.30
2023-02-26T10:19:30.250Z,2.20
2023-02-26T10:20:30.296Z,2.20
2023-02-26T10:21:30.218Z,2.20
2023-02-26T10:22:30.207Z,2.00
2023-02-26T10:23:30.189Z,2.20
2023-02-26T10:24:30.273Z,2.40
2023-02-26T10:25:30.175Z,2.50
2023-02-26T10:26:30.177Z,2.30
2023-02-26T10:27:30.141Z,2.20
2023-02-26T10:28:30.132Z,2.40
2023-02-26T10:29:30.154Z,2.30
2023-02-26T10:30:30.149Z,2.20
2023-02-26T10:31:30.225Z,2.70
2023-02-26T10:32:30.209Z,2.40
2023-02-26T10:33:30.096Z,2.00
2023-02-26T10:34:30.084Z,2.40
2023-02-26T10:35:30.070Z,2.40
2023-02-26T10:36:30.041Z,2.40
2023-02-26T10:37:30.092Z,2.20
2023-02-26T10:38:30.017Z,2.10
2023-02-26T10:39:30.002Z,2.50
2023-02-26T10:40:30.026Z,2.10
2023-02-26T10:41:30.005Z,2.10
2023-02-26T10:42:29.984Z,2.20
2023-02-26T10:43:30.012Z,2.20
2023-02-26T10:44:29.956Z,2.10
2023-02-26T10:45:30.047Z,2.40
2023-02-26T10:46:29.932Z,2.20
2023-02-26T10:47:29.915Z,2.20
2023-02-26T10:48:29.929Z,2.30
2023-02-26T10:49:29.924Z,2.40
2023-02-26T10:50:29.894Z,2.10
2023-02-26T10:51:29.890Z,2.20
2023-02-26T10:52:29.858Z,2.10
2023-02-26T10:53:29.849Z,2.20
2023-02-26T10:54:29.843Z,2.20
2023-02-26T10:55:29.872Z,2.30
2023-02-26T10:56:29.809Z,2.20
2023-02-26T10:57:29.823Z,2.30
2023-02-26T10:58:29.817Z,2.40
2023-02-26T10:59:29.859Z,2.50
2023-02-26T11:00:29.782Z,2.30
2023-02-26T11:01:29.988Z,2.50
2023-02-26T11:02:29.831Z,2.30
2023-02-26T11:03:29.738Z,2.30
2023-02-26T11:04:29.734Z,1.90
2023-02-26T11:05:29.743Z,2.10
2023-02-26T11:06:29.742Z,2.10
2023-02-26T11:07:32.230Z,2.00
2023-02-26T11:08:29.707Z,2.00
2023-02-26T11:09:29.682Z,2.00
2023-02-26T11:10:29.667Z,2.30
2023-02-26T11:11:29.687Z,2.20
2023-02-26T11:12:29.679Z,2.30
2023-02-26T11:13:29.628Z,2.20
2023-02-26T11:14:30.874Z,2.40
2023-02-26T11:15:29.622Z,2.10
2023-02-26T11:16:29.604Z,2.20
2023-02-26T11:17:29.678Z,2.30
2023-02-26T11:18:29.639Z,4.00
2023-02-26T11:19:29.635Z,3.50
2023-02-26T11:20:29.556Z,2.50
2023-02-26T11:21:29.625Z,2.40
2023-02-26T11:22:29.593Z,2.10
2023-02-26T11:23:29.516Z,2.50
2023-02-26T11:24:29.558Z,2.40
2023-02-26T11:25:29.501Z,2.30
2023-02-26T11:26:29.529Z,1.90
2023-02-26T11:27:29.477Z,2.20
2023-02-26T11:28:29.473Z,2.10
2023-02-26T11:29:29.457Z,2.10
2023-02-26T11:30:29.483Z,2.00
2023-02-26T11:31:30.074Z,2.10
2023-02-26T11:32:29.539Z,2.10
2023-02-26T11:33:29.437Z,2.10
2023-02-26T11:34:29.418Z,2.00
2023-02-26T11:35:29.384Z,2.00
2023-02-26T11:36:29.374Z,1.90
2023-02-26T11:37:29.386Z,1.90
2023-02-26T11:38:29.468Z,2.20
2023-02-26T11:39:29.358Z,2.10
2023-02-26T11:40:29.329Z,2.10
2023-02-26T11:41:29.494Z,2.00
2023-02-26T11:42:29.307Z,2.00
2023-02-26T11:43:29.304Z,1.90
2023-02-26T11:44:29.383Z,2.00
2023-02-26T11:45:29.284Z,1.80
2023-02-26T11:46:29.323Z,2.00
2023-02-26T11:47:29.260Z,1.80
2023-02-26T11:48:29.255Z,1.90
2023-02-26T11:49:29.253Z,1.90
2023-02-26T11:50:29.269Z,1.90
2023-02-26T11:51:29.377Z,1.90
2023-02-26T11:52:29.235Z,2.10
2023-02-26T11:53:29.202Z,1.80
2023-02-26T11:54:29.185Z,1.80
2023-02-26T11:55:29.160Z,1.60
2023-02-26T11:56:29.177Z,1.60
2023-02-26T11:57:29.172Z,1.90
2023-02-26T11:58:29.130Z,1.70
2023-02-26T11:59:29.114Z,1.80
2023-02-26T12:00:29.117Z,1.70
2023-02-26T12:01:29.248Z,1.70
2023-02-26T12:02:29.146Z,1.70
2023-02-26T12:03:29.121Z,1.60
2023-02-26T12:04:29.079Z,1.60
2023-02-26T12:05:29.049Z,1.70
2023-02-26T12:06:29.056Z,1.50
2023-02-26T12:07:29.033Z,1.70
2023-02-26T12:08:29.061Z,1.40
2023-02-26T12:09:29.019Z,1.60
2023-02-26T12:10:28.990Z,1.50
2023-02-26T12:11:29.472Z,1.60
2023-02-26T12:12:28.999Z,1.90
2023-02-26T12:13:28.972Z,1.60
2023-02-26T12:14:29.015Z,1.60
2023-02-26T12:15:28.935Z,1.70
2023-02-26T12:16:28.945Z,1.60
2023-02-26T12:17:28.922Z,1.60
2023-02-26T12:18:28.899Z,1.60
2023-02-26T12:19:28.903Z,1.50
2023-02-26T12:20:28.940Z,1.70
2023-02-26T12:21:29.330Z,1.80
2023-02-26T12:22:28.855Z,1.80
2023-02-26T12:23:28.865Z,2.00
2023-02-26T12:24:28.866Z,2.10
2023-02-26T12:25:28.840Z,2.00
2023-02-26T12:26:28.873Z,2.00
2023-02-26T12:27:28.796Z,1.90
2023-02-26T12:28:28.793Z,2.00
2023-02-26T12:29:28.813Z,2.30
2023-02-26T12:30:28.802Z,2.30
2023-02-26T12:31:29.428Z,2.30
2023-02-26T12:32:28.761Z,2.30
2023-02-26T12:33:28.736Z,2.30
2023-02-26T12:34:28.738Z,2.30
2023-02-26T12:35:28.749Z,2.30
2023-02-26T12:36:36.389Z,2.20
2023-02-26T12:37:29.686Z,2.10
2023-02-26T12:38:28.693Z,2.10
2023-02-26T12:39:28.671Z,1.90
2023-02-26T12:40:28.693Z,2.20
2023-02-26T12:41:28.908Z,2.30
2023-02-26T12:42:28.652Z,2.30
2023-02-26T12:43:28.624Z,2.40
2023-02-26T12:44:28.633Z,2.20
2023-02-26T12:45:28.629Z,2.10
2023-02-26T12:46:28.624Z,2.20
2023-02-26T12:47:28.598Z,2.00
2023-02-26T12:48:28.578Z,2.40
2023-02-26T12:49:28.628Z,2.20
2023-02-26T12:50:28.548Z,2.10
2023-02-26T12:51:29.094Z,2.30
2023-02-26T12:52:28.544Z,2.20
2023-02-26T12:53:28.525Z,2.40
2023-02-26T12:54:28.503Z,2.20
2023-02-26T12:55:28.554Z,2.30
2023-02-26T12:56:28.501Z,2.10
2023-02-26T12:57:28.495Z,2.10
2023-02-26T12:58:28.474Z,2.10
2023-02-26T12:59:28.462Z,2.00
2023-02-26T13:00:28.510Z,1.90
2023-02-26T13:01:28.850Z,1.90
2023-02-26T13:02:28.446Z,2.00
2023-02-26T13:03:28.402Z,2.00
2023-02-26T13:04:28.409Z,2.00
2023-02-26T13:05:28.380Z,2.00
2023-02-26T13:06:28.373Z,1.90
2023-02-26T13:07:28.423Z,1.80
2023-02-26T13:08:28.357Z,1.80
2023-02-26T13:09:28.341Z,2.20
2023-02-26T13:10:36.223Z,2.00
2023-02-26T13:11:28.609Z,2.00
2023-02-26T13:12:28.324Z,2.20
2023-02-26T13:13:28.308Z,2.10
2023-02-26T13:14:28.418Z,2.20
2023-02-26T13:15:28.281Z,1.80
2023-02-26T13:16:28.357Z,1.90
2023-02-26T13:17:28.260Z,2.10
2023-02-26T13:18:28.288Z,1.90